sensor_id;sensor_type;location;lat;lon;timestamp;P1;durP1;ratioP1;P2;durP2;ratioP2
35074;SDS011;21260;34.984;32.490;2022-07-23T00:00:17;4.67;;;1.27;;
35074;SDS011;21260;34.984;32.490;2022-07-23T00:02:46;2.57;;;1.20;;
35074;SDS011;21260;34.984;32.490;2022-07-23T00:05:12;2.63;;;1.30;;
35074;SDS011;21260;34.984;32.490;2022-07-23T00:07:38;2.60;;;1.40;;
35074;SDS011;21260;34.984;32.490;2022-07-23T00:10:05;5.33;;;1.50;;
35074;SDS011;21260;34.984;32.490;2022-07-23T00:12:32;2.67;;;1.40;;
35074;SDS011;21260;34.984;32.490;2022-07-23T00:14:59;2.23;;;1.30;;
35074;SDS011;21260;34.984;32.490;2022-07-23T00:17:26;2.50;;;1.30;;
35074;SDS011;21260;34.984;32.490;2022-07-23T00:19:52;7.93;;;1.20;;
35074;SDS011;21260;34.984;32.490;2022-07-23T00:22:18;4.80;;;1.43;;
35074;SDS011;21260;34.984;32.490;2022-07-23T00:24:45;5.37;;;1.50;;
35074;SDS011;21260;34.984;32.490;2022-07-23T00:27:11;1.77;;;1.40;;
35074;SDS011;21260;34.984;32.490;2022-07-23T00:29:37;5.23;;;1.20;;
35074;SDS011;21260;34.984;32.490;2022-07-23T00:32:04;4.33;;;1.50;;
35074;SDS011;21260;34.984;32.490;2022-07-23T00:34:30;1.70;;;1.20;;
35074;SDS011;21260;34.984;32.490;2022-07-23T00:36:57;3.77;;;1.20;;
35074;SDS011;21260;34.984;32.490;2022-07-23T00:39:23;3.30;;;1.50;;
35074;SDS011;21260;34.984;32.490;2022-07-23T00:41:51;2.20;;;1.55;;
35074;SDS011;21260;34.984;32.490;2022-07-23T00:44:22;3.33;;;1.50;;
35074;SDS011;21260;34.984;32.490;2022-07-23T00:46:51;2.77;;;1.43;;
35074;SDS011;21260;34.984;32.490;2022-07-23T00:49:21;2.37;;;1.20;;
35074;SDS011;21260;34.984;32.490;2022-07-23T00:51:49;1.43;;;1.17;;
35074;SDS011;21260;34.984;32.490;2022-07-23T00:54:17;2.17;;;1.27;;
35074;SDS011;21260;34.984;32.490;2022-07-23T00:56:45;2.83;;;1.20;;
35074;SDS011;21260;34.984;32.490;2022-07-23T00:59:12;3.47;;;1.27;;
35074;SDS011;21260;34.984;32.490;2022-07-23T01:01:39;4.73;;;1.40;;
35074;SDS011;21260;34.984;32.490;2022-07-23T01:04:07;2.77;;;1.40;;
35074;SDS011;21260;34.984;32.490;2022-07-23T01:06:34;4.28;;;1.60;;
35074;SDS011;21260;34.984;32.490;2022-07-23T01:09:02;6.28;;;1.45;;
35074;SDS011;21260;34.984;32.490;2022-07-23T01:11:33;14.97;;;2.03;;
35074;SDS011;21260;34.984;32.490;2022-07-23T01:14:14;1.93;;;1.30;;
35074;SDS011;21260;34.984;32.490;2022-07-23T01:16:43;3.67;;;1.40;;
35074;SDS011;21260;34.984;32.490;2022-07-23T01:19:12;3.60;;;1.67;;
35074;SDS011;21260;34.984;32.490;2022-07-23T01:21:40;2.45;;;1.20;;
35074;SDS011;21260;34.984;32.490;2022-07-23T01:24:10;4.63;;;1.50;;
35074;SDS011;21260;34.984;32.490;2022-07-23T01:26:38;2.77;;;1.30;;
35074;SDS011;21260;34.984;32.490;2022-07-23T01:29:09;3.87;;;1.57;;
35074;SDS011;21260;34.984;32.490;2022-07-23T01:31:36;2.30;;;1.40;;
35074;SDS011;21260;34.984;32.490;2022-07-23T01:34:02;2.67;;;1.47;;
35074;SDS011;21260;34.984;32.490;2022-07-23T01:36:29;3.60;;;1.30;;
35074;SDS011;21260;34.984;32.490;2022-07-23T01:38:55;2.40;;;1.33;;
35074;SDS011;21260;34.984;32.490;2022-07-23T01:41:22;3.13;;;1.40;;
35074;SDS011;21260;34.984;32.490;2022-07-23T01:43:48;6.13;;;1.43;;
35074;SDS011;21260;34.984;32.490;2022-07-23T01:46:14;3.13;;;1.43;;
35074;SDS011;21260;34.984;32.490;2022-07-23T01:48:41;1.70;;;1.20;;
35074;SDS011;21260;34.984;32.490;2022-07-23T01:51:07;2.40;;;1.17;;
35074;SDS011;21260;34.984;32.490;2022-07-23T01:53:34;4.20;;;1.20;;
35074;SDS011;21260;34.984;32.490;2022-07-23T01:56:00;2.97;;;1.30;;
35074;SDS011;21260;34.984;32.490;2022-07-23T01:58:28;3.67;;;1.37;;
35074;SDS011;21260;34.984;32.490;2022-07-23T02:00:55;6.23;;;1.30;;
35074;SDS011;21260;34.984;32.490;2022-07-23T02:03:22;7.40;;;1.27;;
35074;SDS011;21260;34.984;32.490;2022-07-23T02:05:48;4.23;;;1.30;;
35074;SDS011;21260;34.984;32.490;2022-07-23T02:08:15;4.53;;;1.47;;
35074;SDS011;21260;34.984;32.490;2022-07-23T02:10:41;3.03;;;1.30;;
35074;SDS011;21260;34.984;32.490;2022-07-23T02:13:08;1.73;;;1.13;;
35074;SDS011;21260;34.984;32.490;2022-07-23T02:15:35;2.23;;;1.20;;
35074;SDS011;21260;34.984;32.490;2022-07-23T02:18:01;2.40;;;1.70;;
35074;SDS011;21260;34.984;32.490;2022-07-23T02:20:28;2.50;;;1.60;;
35074;SDS011;21260;34.984;32.490;2022-07-23T02:22:54;3.83;;;1.47;;
35074;SDS011;21260;34.984;32.490;2022-07-23T02:25:20;4.93;;;1.30;;
35074;SDS011;21260;34.984;32.490;2022-07-23T02:27:47;2.33;;;1.27;;
35074;SDS011;21260;34.984;32.490;2022-07-23T02:30:13;3.50;;;1.50;;
35074;SDS011;21260;34.984;32.490;2022-07-23T02:32:39;1.77;;;1.37;;
35074;SDS011;21260;34.984;32.490;2022-07-23T02:35:06;2.90;;;1.30;;
35074;SDS011;21260;34.984;32.490;2022-07-23T02:37:36;2.37;;;1.30;;
35074;SDS011;21260;34.984;32.490;2022-07-23T02:40:02;4.13;;;1.50;;
35074;SDS011;21260;34.984;32.490;2022-07-23T02:42:29;2.53;;;1.23;;
35074;SDS011;21260;34.984;32.490;2022-07-23T02:44:56;3.00;;;1.30;;
35074;SDS011;21260;34.984;32.490;2022-07-23T02:47:22;4.83;;;1.30;;
35074;SDS011;21260;34.984;32.490;2022-07-23T02:49:48;5.83;;;1.57;;
35074;SDS011;21260;34.984;32.490;2022-07-23T02:52:15;1.60;;;1.40;;
35074;SDS011;21260;34.984;32.490;2022-07-23T02:54:43;1.93;;;1.30;;
35074;SDS011;21260;34.984;32.490;2022-07-23T02:57:09;2.83;;;1.43;;
35074;SDS011;21260;34.984;32.490;2022-07-23T02:59:35;6.17;;;1.57;;
35074;SDS011;21260;34.984;32.490;2022-07-23T03:02:01;3.17;;;1.40;;
35074;SDS011;21260;34.984;32.490;2022-07-23T03:04:28;2.33;;;1.57;;
35074;SDS011;21260;34.984;32.490;2022-07-23T03:06:57;3.23;;;1.80;;
35074;SDS011;21260;34.984;32.490;2022-07-23T03:09:23;4.70;;;1.50;;
35074;SDS011;21260;34.984;32.490;2022-07-23T03:11:49;3.30;;;1.13;;
35074;SDS011;21260;34.984;32.490;2022-07-23T03:14:15;2.60;;;1.30;;
35074;SDS011;21260;34.984;32.490;2022-07-23T03:16:42;4.60;;;1.40;;
35074;SDS011;21260;34.984;32.490;2022-07-23T03:19:08;3.83;;;1.30;;
35074;SDS011;21260;34.984;32.490;2022-07-23T03:21:35;2.83;;;1.60;;
35074;SDS011;21260;34.984;32.490;2022-07-23T03:24:05;4.23;;;1.50;;
35074;SDS011;21260;34.984;32.490;2022-07-23T03:26:35;2.37;;;1.73;;
35074;SDS011;21260;34.984;32.490;2022-07-23T03:29:02;2.57;;;1.40;;
35074;SDS011;21260;34.984;32.490;2022-07-23T03:31:30;4.17;;;1.40;;
35074;SDS011;21260;34.984;32.490;2022-07-23T03:33:57;4.50;;;1.50;;
35074;SDS011;21260;34.984;32.490;2022-07-23T03:36:24;2.10;;;1.30;;
35074;SDS011;21260;34.984;32.490;2022-07-23T03:38:51;1.90;;;1.40;;
35074;SDS011;21260;34.984;32.490;2022-07-23T03:41:21;2.73;;;1.40;;
35074;SDS011;21260;34.984;32.490;2022-07-23T03:43:47;3.03;;;1.60;;
35074;SDS011;21260;34.984;32.490;2022-07-23T03:46:13;2.03;;;1.30;;
35074;SDS011;21260;34.984;32.490;2022-07-23T03:48:40;5.73;;;1.77;;
35074;SDS011;21260;34.984;32.490;2022-07-23T03:51:06;3.10;;;1.50;;
35074;SDS011;21260;34.984;32.490;2022-07-23T03:53:33;2.33;;;1.50;;
35074;SDS011;21260;34.984;32.490;2022-07-23T03:55:59;4.33;;;1.37;;
35074;SDS011;21260;34.984;32.490;2022-07-23T03:58:26;5.60;;;1.50;;
35074;SDS011;21260;34.984;32.490;2022-07-23T04:00:52;6.87;;;1.43;;
35074;SDS011;21260;34.984;32.490;2022-07-23T04:03:18;3.47;;;1.20;;
35074;SDS011;21260;34.984;32.490;2022-07-23T04:05:44;6.90;;;1.70;;
35074;SDS011;21260;34.984;32.490;2022-07-23T04:08:11;3.33;;;1.37;;
35074;SDS011;21260;34.984;32.490;2022-07-23T04:10:37;3.88;;;1.20;;
35074;SDS011;21260;34.984;32.490;2022-07-23T04:13:03;6.00;;;1.17;;
35074;SDS011;21260;34.984;32.490;2022-07-23T04:15:29;2.60;;;1.10;;
35074;SDS011;21260;34.984;32.490;2022-07-23T04:17:56;4.00;;;1.40;;
35074;SDS011;21260;34.984;32.490;2022-07-23T04:20:23;4.10;;;1.60;;
35074;SDS011;21260;34.984;32.490;2022-07-23T04:22:49;3.27;;;1.30;;
35074;SDS011;21260;34.984;32.490;2022-07-23T04:25:15;1.87;;;1.17;;
35074;SDS011;21260;34.984;32.490;2022-07-23T04:27:42;3.97;;;1.50;;
35074;SDS011;21260;34.984;32.490;2022-07-23T04:30:08;3.73;;;1.23;;
35074;SDS011;21260;34.984;32.490;2022-07-23T04:32:35;3.20;;;1.30;;
35074;SDS011;21260;34.984;32.490;2022-07-23T04:35:01;2.05;;;1.20;;
35074;SDS011;21260;34.984;32.490;2022-07-23T04:37:28;8.00;;;1.57;;
35074;SDS011;21260;34.984;32.490;2022-07-23T04:39:54;1.90;;;1.17;;
35074;SDS011;21260;34.984;32.490;2022-07-23T04:42:21;1.80;;;1.10;;
35074;SDS011;21260;34.984;32.490;2022-07-23T04:44:49;4.97;;;1.50;;
35074;SDS011;21260;34.984;32.490;2022-07-23T04:47:15;3.75;;;1.67;;
35074;SDS011;21260;34.984;32.490;2022-07-23T04:49:41;4.72;;;1.30;;
35074;SDS011;21260;34.984;32.490;2022-07-23T04:52:07;1.90;;;1.33;;
35074;SDS011;21260;34.984;32.490;2022-07-23T04:54:34;1.85;;;1.30;;
35074;SDS011;21260;34.984;32.490;2022-07-23T04:57:00;3.65;;;1.63;;
35074;SDS011;21260;34.984;32.490;2022-07-23T04:59:26;4.13;;;1.27;;
35074;SDS011;21260;34.984;32.490;2022-07-23T05:01:53;2.47;;;1.42;;
35074;SDS011;21260;34.984;32.490;2022-07-23T05:04:19;3.30;;;1.33;;
35074;SDS011;21260;34.984;32.490;2022-07-23T05:06:46;1.60;;;1.10;;
35074;SDS011;21260;34.984;32.490;2022-07-23T05:09:12;1.80;;;1.25;;
35074;SDS011;21260;34.984;32.490;2022-07-23T05:11:38;5.05;;;1.45;;
35074;SDS011;21260;34.984;32.490;2022-07-23T05:14:05;5.75;;;1.52;;
35074;SDS011;21260;34.984;32.490;2022-07-23T05:16:31;3.25;;;1.40;;
35074;SDS011;21260;34.984;32.490;2022-07-23T05:18:58;2.13;;;1.35;;
35074;SDS011;21260;34.984;32.490;2022-07-23T05:21:24;1.55;;;1.27;;
35074;SDS011;21260;34.984;32.490;2022-07-23T05:23:54;2.42;;;1.30;;
35074;SDS011;21260;34.984;32.490;2022-07-23T05:26:21;3.72;;;1.60;;
35074;SDS011;21260;34.984;32.490;2022-07-23T05:28:48;6.35;;;1.33;;
35074;SDS011;21260;34.984;32.490;2022-07-23T05:31:17;5.90;;;1.30;;
35074;SDS011;21260;34.984;32.490;2022-07-23T05:33:45;1.90;;;1.30;;
35074;SDS011;21260;34.984;32.490;2022-07-23T05:36:13;3.60;;;1.30;;
35074;SDS011;21260;34.984;32.490;2022-07-23T05:38:41;7.53;;;1.45;;
35074;SDS011;21260;34.984;32.490;2022-07-23T05:41:07;3.13;;;1.30;;
35074;SDS011;21260;34.984;32.490;2022-07-23T05:43:34;6.78;;;1.70;;
35074;SDS011;21260;34.984;32.490;2022-07-23T05:46:00;2.33;;;1.50;;
35074;SDS011;21260;34.984;32.490;2022-07-23T05:48:26;7.53;;;1.35;;
35074;SDS011;21260;34.984;32.490;2022-07-23T05:50:53;4.28;;;1.58;;
35074;SDS011;21260;34.984;32.490;2022-07-23T05:53:19;2.67;;;1.30;;
35074;SDS011;21260;34.984;32.490;2022-07-23T05:55:45;2.95;;;1.25;;
35074;SDS011;21260;34.984;32.490;2022-07-23T05:58:11;4.88;;;1.40;;
35074;SDS011;21260;34.984;32.490;2022-07-23T06:00:38;7.78;;;1.55;;
35074;SDS011;21260;34.984;32.490;2022-07-23T06:03:04;4.75;;;1.90;;
35074;SDS011;21260;34.984;32.490;2022-07-23T06:05:30;9.38;;;1.70;;
35074;SDS011;21260;34.984;32.490;2022-07-23T06:07:57;5.20;;;1.40;;
35074;SDS011;21260;34.984;32.490;2022-07-23T06:10:23;2.97;;;1.50;;
35074;SDS011;21260;34.984;32.490;2022-07-23T06:12:50;3.85;;;1.50;;
35074;SDS011;21260;34.984;32.490;2022-07-23T06:15:17;5.43;;;1.50;;
35074;SDS011;21260;34.984;32.490;2022-07-23T06:17:43;2.92;;;1.45;;
35074;SDS011;21260;34.984;32.490;2022-07-23T06:20:09;4.75;;;1.48;;
35074;SDS011;21260;34.984;32.490;2022-07-23T06:22:36;13.05;;;1.92;;
35074;SDS011;21260;34.984;32.490;2022-07-23T06:25:03;2.58;;;1.40;;
35074;SDS011;21260;34.984;32.490;2022-07-23T06:27:30;2.47;;;1.33;;
35074;SDS011;21260;34.984;32.490;2022-07-23T06:29:56;5.30;;;1.40;;
35074;SDS011;21260;34.984;32.490;2022-07-23T06:32:22;3.83;;;1.52;;
35074;SDS011;21260;34.984;32.490;2022-07-23T06:34:49;10.57;;;1.80;;
35074;SDS011;21260;34.984;32.490;2022-07-23T06:37:15;6.00;;;1.70;;
35074;SDS011;21260;34.984;32.490;2022-07-23T06:39:42;2.63;;;1.67;;
35074;SDS011;21260;34.984;32.490;2022-07-23T06:42:10;5.63;;;1.70;;
35074;SDS011;21260;34.984;32.490;2022-07-23T06:44:37;6.60;;;1.90;;
35074;SDS011;21260;34.984;32.490;2022-07-23T06:47:04;2.70;;;1.52;;
35074;SDS011;21260;34.984;32.490;2022-07-23T06:49:31;5.15;;;1.73;;
35074;SDS011;21260;34.984;32.490;2022-07-23T06:51:57;4.75;;;1.48;;
35074;SDS011;21260;34.984;32.490;2022-07-23T06:54:23;3.60;;;1.63;;
35074;SDS011;21260;34.984;32.490;2022-07-23T06:56:50;6.80;;;1.67;;
35074;SDS011;21260;34.984;32.490;2022-07-23T06:59:21;3.17;;;1.55;;
35074;SDS011;21260;34.984;32.490;2022-07-23T07:01:49;3.33;;;1.55;;
35074;SDS011;21260;34.984;32.490;2022-07-23T07:04:15;5.47;;;1.67;;
35074;SDS011;21260;34.984;32.490;2022-07-23T07:06:42;8.85;;;1.80;;
35074;SDS011;21260;34.984;32.490;2022-07-23T07:09:08;8.57;;;2.00;;
35074;SDS011;21260;34.984;32.490;2022-07-23T07:11:38;4.38;;;1.60;;
35074;SDS011;21260;34.984;32.490;2022-07-23T07:14:04;2.83;;;1.52;;
35074;SDS011;21260;34.984;32.490;2022-07-23T07:16:31;3.05;;;1.50;;
35074;SDS011;21260;34.984;32.490;2022-07-23T07:18:58;5.57;;;2.20;;
35074;SDS011;21260;34.984;32.490;2022-07-23T07:21:24;3.55;;;1.42;;
35074;SDS011;21260;34.984;32.490;2022-07-23T07:23:51;7.70;;;1.60;;
35074;SDS011;21260;34.984;32.490;2022-07-23T07:26:17;4.18;;;1.85;;
35074;SDS011;21260;34.984;32.490;2022-07-23T07:28:43;3.42;;;1.40;;
35074;SDS011;21260;34.984;32.490;2022-07-23T07:31:11;2.20;;;1.50;;
35074;SDS011;21260;34.984;32.490;2022-07-23T07:33:40;5.13;;;1.85;;
35074;SDS011;21260;34.984;32.490;2022-07-23T07:36:13;3.80;;;1.67;;
35074;SDS011;21260;34.984;32.490;2022-07-23T07:38:39;9.50;;;1.80;;
35074;SDS011;21260;34.984;32.490;2022-07-23T07:41:05;3.78;;;1.70;;
35074;SDS011;21260;34.984;32.490;2022-07-23T07:43:33;7.30;;;1.90;;
35074;SDS011;21260;34.984;32.490;2022-07-23T07:45:59;8.77;;;1.98;;
35074;SDS011;21260;34.984;32.490;2022-07-23T07:48:25;3.70;;;1.77;;
35074;SDS011;21260;34.984;32.490;2022-07-23T07:50:52;11.38;;;2.03;;
35074;SDS011;21260;34.984;32.490;2022-07-23T07:53:18;3.40;;;1.67;;
35074;SDS011;21260;34.984;32.490;2022-07-23T07:55:44;6.47;;;1.80;;
35074;SDS011;21260;34.984;32.490;2022-07-23T07:58:11;2.70;;;1.55;;
35074;SDS011;21260;34.984;32.490;2022-07-23T08:00:37;6.22;;;1.80;;
35074;SDS011;21260;34.984;32.490;2022-07-23T08:03:03;5.55;;;1.70;;
35074;SDS011;21260;34.984;32.490;2022-07-23T08:05:30;8.07;;;1.90;;
35074;SDS011;21260;34.984;32.490;2022-07-23T08:07:58;3.83;;;1.60;;
35074;SDS011;21260;34.984;32.490;2022-07-23T08:10:25;7.75;;;1.70;;
35074;SDS011;21260;34.984;32.490;2022-07-23T08:12:54;8.68;;;1.92;;
35074;SDS011;21260;34.984;32.490;2022-07-23T08:15:22;7.40;;;1.70;;
35074;SDS011;21260;34.984;32.490;2022-07-23T08:17:51;5.07;;;1.98;;
35074;SDS011;21260;34.984;32.490;2022-07-23T08:20:19;6.22;;;1.83;;
35074;SDS011;21260;34.984;32.490;2022-07-23T08:22:54;9.30;;;1.80;;
35074;SDS011;21260;34.984;32.490;2022-07-23T08:25:31;6.85;;;1.77;;
35074;SDS011;21260;34.984;32.490;2022-07-23T08:28:04;9.63;;;1.48;;
35074;SDS011;21260;34.984;32.490;2022-07-23T08:30:33;3.75;;;1.70;;
35074;SDS011;21260;34.984;32.490;2022-07-23T08:33:05;6.18;;;2.17;;
35074;SDS011;21260;34.984;32.490;2022-07-23T08:35:44;5.00;;;1.70;;
35074;SDS011;21260;34.984;32.490;2022-07-23T08:38:18;7.82;;;1.92;;
35074;SDS011;21260;34.984;32.490;2022-07-23T08:40:51;10.02;;;2.33;;
35074;SDS011;21260;34.984;32.490;2022-07-23T08:43:21;12.18;;;2.00;;
35074;SDS011;21260;34.984;32.490;2022-07-23T08:45:51;8.90;;;2.00;;
35074;SDS011;21260;34.984;32.490;2022-07-23T08:48:25;6.38;;;2.17;;
35074;SDS011;21260;34.984;32.490;2022-07-23T08:50:55;4.80;;;2.03;;
35074;SDS011;21260;34.984;32.490;2022-07-23T08:53:24;8.05;;;2.33;;
35074;SDS011;21260;34.984;32.490;2022-07-23T08:55:54;5.90;;;2.15;;
35074;SDS011;21260;34.984;32.490;2022-07-23T08:58:23;7.90;;;1.90;;
35074;SDS011;21260;34.984;32.490;2022-07-23T09:00:50;4.78;;;2.13;;
35074;SDS011;21260;34.984;32.490;2022-07-23T09:03:27;14.88;;;2.30;;
35074;SDS011;21260;34.984;32.490;2022-07-23T09:05:57;6.05;;;2.13;;
35074;SDS011;21260;34.984;32.490;2022-07-23T09:08:36;10.60;;;2.60;;
35074;SDS011;21260;34.984;32.490;2022-07-23T09:11:18;3.40;;;2.00;;
35074;SDS011;21260;34.984;32.490;2022-07-23T09:13:54;7.15;;;2.30;;
35074;SDS011;21260;34.984;32.490;2022-07-23T09:16:27;5.07;;;2.10;;
35074;SDS011;21260;34.984;32.490;2022-07-23T09:18:57;9.15;;;2.30;;
35074;SDS011;21260;34.984;32.490;2022-07-23T09:21:26;7.35;;;2.10;;
35074;SDS011;21260;34.984;32.490;2022-07-23T09:23:59;7.88;;;1.98;;
35074;SDS011;21260;34.984;32.490;2022-07-23T09:34:28;5.57;;;2.10;;
35074;SDS011;21260;34.984;32.490;2022-07-23T09:37:11;9.50;;;2.63;;
35074;SDS011;21260;34.984;32.490;2022-07-23T09:39:44;5.15;;;1.83;;
35074;SDS011;21260;34.984;32.490;2022-07-23T09:42:23;5.85;;;2.20;;
35074;SDS011;21260;34.984;32.490;2022-07-23T09:44:51;7.72;;;2.10;;
35074;SDS011;21260;34.984;32.490;2022-07-23T09:47:20;10.23;;;2.40;;
35074;SDS011;21260;34.984;32.490;2022-07-23T09:50:23;4.35;;;1.95;;
35074;SDS011;21260;34.984;32.490;2022-07-23T09:52:46;7.35;;;2.17;;
35074;SDS011;21260;34.984;32.490;2022-07-23T09:55:15;8.40;;;2.40;;
35074;SDS011;21260;34.984;32.490;2022-07-23T09:57:44;5.95;;;2.08;;
35074;SDS011;21260;34.984;32.490;2022-07-23T10:00:15;4.95;;;2.13;;
35074;SDS011;21260;34.984;32.490;2022-07-23T10:02:42;5.03;;;2.35;;
35074;SDS011;21260;34.984;32.490;2022-07-23T10:05:13;6.35;;;2.50;;
35074;SDS011;21260;34.984;32.490;2022-07-23T10:07:40;7.88;;;2.53;;
35074;SDS011;21260;34.984;32.490;2022-07-23T10:10:11;5.75;;;2.38;;
35074;SDS011;21260;34.984;32.490;2022-07-23T10:12:39;10.07;;;2.53;;
35074;SDS011;21260;34.984;32.490;2022-07-23T10:15:11;7.07;;;2.25;;
35074;SDS011;21260;34.984;32.490;2022-07-23T10:17:37;3.92;;;2.13;;
35074;SDS011;21260;34.984;32.490;2022-07-23T10:20:04;7.25;;;2.13;;
35074;SDS011;21260;34.984;32.490;2022-07-23T10:22:40;11.25;;;2.40;;
35074;SDS011;21260;34.984;32.490;2022-07-23T10:28:30;8.20;;;2.13;;
35074;SDS011;21260;34.984;32.490;2022-07-23T10:35:10;6.93;;;2.22;;
35074;SDS011;21260;34.984;32.490;2022-07-23T10:38:01;12.18;;;2.58;;
35074;SDS011;21260;34.984;32.490;2022-07-23T10:40:36;8.05;;;2.15;;
35074;SDS011;21260;34.984;32.490;2022-07-23T10:43:15;4.50;;;1.98;;
35074;SDS011;21260;34.984;32.490;2022-07-23T10:45:43;14.50;;;3.00;;
35074;SDS011;21260;34.984;32.490;2022-07-23T10:48:31;10.30;;;2.50;;
35074;SDS011;21260;34.984;32.490;2022-07-23T10:51:14;4.88;;;2.10;;
35074;SDS011;21260;34.984;32.490;2022-07-23T10:59:21;6.40;;;2.10;;
35074;SDS011;21260;34.984;32.490;2022-07-23T11:01:49;7.28;;;2.17;;
35074;SDS011;21260;34.984;32.490;2022-07-23T11:04:17;3.88;;;2.00;;
35074;SDS011;21260;34.984;32.490;2022-07-23T11:14:58;9.18;;;2.45;;
35074;SDS011;21260;34.984;32.490;2022-07-23T11:22:35;12.25;;;2.10;;
35074;SDS011;21260;34.984;32.490;2022-07-23T11:25:30;5.38;;;2.20;;
35074;SDS011;21260;34.984;32.490;2022-07-23T11:28:13;4.95;;;2.13;;
35074;SDS011;21260;34.984;32.490;2022-07-23T11:30:43;10.70;;;2.10;;
35074;SDS011;21260;34.984;32.490;2022-07-23T11:35:41;7.93;;;2.33;;
35074;SDS011;21260;34.984;32.490;2022-07-23T11:38:21;6.75;;;2.22;;
35074;SDS011;21260;34.984;32.490;2022-07-23T11:40:52;7.38;;;2.45;;
35074;SDS011;21260;34.984;32.490;2022-07-23T11:43:23;10.35;;;2.30;;
35074;SDS011;21260;34.984;32.490;2022-07-23T11:45:53;10.68;;;2.40;;
35074;SDS011;21260;34.984;32.490;2022-07-23T11:48:25;7.95;;;2.38;;
35074;SDS011;21260;34.984;32.490;2022-07-23T11:50:56;3.95;;;1.90;;
35074;SDS011;21260;34.984;32.490;2022-07-23T11:53:28;6.50;;;1.70;;
35074;SDS011;21260;34.984;32.490;2022-07-23T11:58:36;4.70;;;1.95;;
35074;SDS011;21260;34.984;32.490;2022-07-23T12:01:04;3.53;;;2.00;;
35074;SDS011;21260;34.984;32.490;2022-07-23T12:03:31;10.73;;;2.30;;
35074;SDS011;21260;34.984;32.490;2022-07-23T12:05:58;5.15;;;2.13;;
35074;SDS011;21260;34.984;32.490;2022-07-23T12:08:26;7.10;;;2.22;;
35074;SDS011;21260;34.984;32.490;2022-07-23T12:10:52;11.00;;;2.60;;
35074;SDS011;21260;34.984;32.490;2022-07-23T12:13:19;7.97;;;2.40;;
35074;SDS011;21260;34.984;32.490;2022-07-23T12:15:49;12.82;;;2.20;;
35074;SDS011;21260;34.984;32.490;2022-07-23T12:18:19;11.35;;;2.00;;
35074;SDS011;21260;34.984;32.490;2022-07-23T12:20:52;4.55;;;1.92;;
35074;SDS011;21260;34.984;32.490;2022-07-23T12:23:24;10.00;;;2.55;;
35074;SDS011;21260;34.984;32.490;2022-07-23T12:25:52;7.65;;;2.13;;
35074;SDS011;21260;34.984;32.490;2022-07-23T12:28:20;6.20;;;2.13;;
35074;SDS011;21260;34.984;32.490;2022-07-23T12:30:54;10.05;;;2.30;;
35074;SDS011;21260;34.984;32.490;2022-07-23T12:33:25;7.40;;;1.90;;
35074;SDS011;21260;34.984;32.490;2022-07-23T12:36:03;6.32;;;2.10;;
35074;SDS011;21260;34.984;32.490;2022-07-23T12:38:37;13.40;;;2.03;;
35074;SDS011;21260;34.984;32.490;2022-07-23T12:41:14;9.80;;;2.42;;
35074;SDS011;21260;34.984;32.490;2022-07-23T12:43:42;7.55;;;2.38;;
35074;SDS011;21260;34.984;32.490;2022-07-23T12:46:20;10.85;;;2.42;;
35074;SDS011;21260;34.984;32.490;2022-07-23T12:53:48;12.23;;;2.47;;
35074;SDS011;21260;34.984;32.490;2022-07-23T12:56:22;10.52;;;2.42;;
35074;SDS011;21260;34.984;32.490;2022-07-23T12:58:57;5.85;;;2.30;;
35074;SDS011;21260;34.984;32.490;2022-07-23T13:01:35;9.10;;;2.78;;
35074;SDS011;21260;34.984;32.490;2022-07-23T13:04:17;9.25;;;2.08;;
35074;SDS011;21260;34.984;32.490;2022-07-23T13:06:54;6.75;;;2.22;;
35074;SDS011;21260;34.984;32.490;2022-07-23T13:09:27;6.13;;;2.08;;
35074;SDS011;21260;34.984;32.490;2022-07-23T13:11:58;6.13;;;2.17;;
35074;SDS011;21260;34.984;32.490;2022-07-23T13:14:25;8.60;;;2.50;;
35074;SDS011;21260;34.984;32.490;2022-07-23T13:16:53;5.43;;;2.28;;
35074;SDS011;21260;34.984;32.490;2022-07-23T13:19:20;9.70;;;2.00;;
35074;SDS011;21260;34.984;32.490;2022-07-23T13:21:47;6.95;;;2.17;;
35074;SDS011;21260;34.984;32.490;2022-07-23T13:24:14;5.35;;;2.22;;
35074;SDS011;21260;34.984;32.490;2022-07-23T13:26:41;4.60;;;1.95;;
35074;SDS011;21260;34.984;32.490;2022-07-23T13:29:08;7.90;;;2.00;;
35074;SDS011;21260;34.984;32.490;2022-07-23T13:31:38;10.25;;;2.35;;
35074;SDS011;21260;34.984;32.490;2022-07-23T13:34:05;7.05;;;1.98;;
35074;SDS011;21260;34.984;32.490;2022-07-23T13:36:32;8.38;;;2.30;;
35074;SDS011;21260;34.984;32.490;2022-07-23T13:38:59;4.47;;;1.73;;
35074;SDS011;21260;34.984;32.490;2022-07-23T13:41:25;9.73;;;2.40;;
35074;SDS011;21260;34.984;32.490;2022-07-23T13:43:52;7.63;;;1.88;;
35074;SDS011;21260;34.984;32.490;2022-07-23T13:46:21;8.35;;;1.92;;
35074;SDS011;21260;34.984;32.490;2022-07-23T13:48:51;6.53;;;2.28;;
35074;SDS011;21260;34.984;32.490;2022-07-23T13:51:17;6.15;;;2.03;;
35074;SDS011;21260;34.984;32.490;2022-07-23T13:53:44;4.85;;;1.92;;
35074;SDS011;21260;34.984;32.490;2022-07-23T13:56:11;5.20;;;2.30;;
35074;SDS011;21260;34.984;32.490;2022-07-23T13:58:38;8.02;;;2.33;;
35074;SDS011;21260;34.984;32.490;2022-07-23T14:01:05;7.68;;;2.30;;
35074;SDS011;21260;34.984;32.490;2022-07-23T14:03:32;9.63;;;2.50;;
35074;SDS011;21260;34.984;32.490;2022-07-23T14:05:58;6.80;;;2.35;;
35074;SDS011;21260;34.984;32.490;2022-07-23T14:08:25;8.85;;;2.17;;
35074;SDS011;21260;34.984;32.490;2022-07-23T14:10:51;9.20;;;2.40;;
35074;SDS011;21260;34.984;32.490;2022-07-23T14:13:18;5.68;;;2.00;;
35074;SDS011;21260;34.984;32.490;2022-07-23T14:15:44;8.43;;;2.30;;
35074;SDS011;21260;34.984;32.490;2022-07-23T14:18:12;6.72;;;2.10;;
35074;SDS011;21260;34.984;32.490;2022-07-23T14:20:38;6.05;;;2.00;;
35074;SDS011;21260;34.984;32.490;2022-07-23T14:23:05;3.20;;;1.98;;
35074;SDS011;21260;34.984;32.490;2022-07-23T14:25:31;5.53;;;2.20;;
35074;SDS011;21260;34.984;32.490;2022-07-23T14:27:58;8.38;;;2.25;;
35074;SDS011;21260;34.984;32.490;2022-07-23T14:30:24;6.05;;;2.03;;
35074;SDS011;21260;34.984;32.490;2022-07-23T14:32:50;5.15;;;1.92;;
35074;SDS011;21260;34.984;32.490;2022-07-23T14:35:17;8.02;;;2.08;;
35074;SDS011;21260;34.984;32.490;2022-07-23T14:37:44;11.43;;;2.10;;
35074;SDS011;21260;34.984;32.490;2022-07-23T14:40:10;7.57;;;2.35;;
35074;SDS011;21260;34.984;32.490;2022-07-23T14:42:37;5.07;;;2.10;;
35074;SDS011;21260;34.984;32.490;2022-07-23T14:45:03;5.45;;;1.85;;
35074;SDS011;21260;34.984;32.490;2022-07-23T14:47:31;4.65;;;2.05;;
35074;SDS011;21260;34.984;32.490;2022-07-23T14:49:57;7.40;;;2.10;;
35074;SDS011;21260;34.984;32.490;2022-07-23T14:52:24;5.82;;;2.00;;
35074;SDS011;21260;34.984;32.490;2022-07-23T14:54:50;7.00;;;2.17;;
35074;SDS011;21260;34.984;32.490;2022-07-23T14:57:16;7.35;;;1.90;;
35074;SDS011;21260;34.984;32.490;2022-07-23T14:59:43;8.77;;;1.90;;
35074;SDS011;21260;34.984;32.490;2022-07-23T15:02:09;6.18;;;2.08;;
35074;SDS011;21260;34.984;32.490;2022-07-23T15:04:35;5.05;;;1.90;;
35074;SDS011;21260;34.984;32.490;2022-07-23T15:07:02;5.57;;;1.90;;
35074;SDS011;21260;34.984;32.490;2022-07-23T15:09:30;5.68;;;1.85;;
35074;SDS011;21260;34.984;32.490;2022-07-23T15:11:56;5.95;;;2.28;;
35074;SDS011;21260;34.984;32.490;2022-07-23T15:14:22;5.63;;;1.70;;
35074;SDS011;21260;34.984;32.490;2022-07-23T15:16:48;6.28;;;1.98;;
35074;SDS011;21260;34.984;32.490;2022-07-23T15:19:15;5.50;;;1.80;;
35074;SDS011;21260;34.984;32.490;2022-07-23T15:21:41;4.80;;;2.13;;
35074;SDS011;21260;34.984;32.490;2022-07-23T15:24:07;6.35;;;1.90;;